sensor_id;sensor_type;location;lat;lon;timestamp;P1;durP1;ratioP1;P2;durP2;ratioP2
21330;SDS011;10824;51.632;4.950;2022-12-24T00:01:19;16.60;;;3.65;;
21330;SDS011;10824;51.632;4.950;2022-12-24T00:03:46;24.08;;;4.00;;
21330;SDS011;10824;51.632;4.950;2022-12-24T00:06:18;14.25;;;3.53;;
21330;SDS011;10824;51.632;4.950;2022-12-24T00:08:49;21.08;;;3.75;;
21330;SDS011;10824;51.632;4.950;2022-12-24T00:11:17;12.57;;;3.13;;
21330;SDS011;10824;51.632;4.950;2022-12-24T00:13:44;12.43;;;2.83;;
21330;SDS011;10824;51.632;4.950;2022-12-24T00:16:11;14.30;;;2.72;;
21330;SDS011;10824;51.632;4.950;2022-12-24T00:18:38;15.50;;;3.20;;
21330;SDS011;10824;51.632;4.950;2022-12-24T00:21:12;10.23;;;2.83;;
21330;SDS011;10824;51.632;4.950;2022-12-24T00:23:42;17.30;;;3.17;;
21330;SDS011;10824;51.632;4.950;2022-12-24T00:26:10;18.48;;;4.57;;
21330;SDS011;10824;51.632;4.950;2022-12-24T00:28:38;13.68;;;3.13;;
21330;SDS011;10824;51.632;4.950;2022-12-24T00:31:06;14.40;;;3.05;;
21330;SDS011;10824;51.632;4.950;2022-12-24T00:33:37;14.02;;;3.13;;
21330;SDS011;10824;51.632;4.950;2022-12-24T00:36:05;10.85;;;2.67;;
21330;SDS011;10824;51.632;4.950;2022-12-24T00:38:32;8.88;;;2.42;;
21330;SDS011;10824;51.632;4.950;2022-12-24T00:41:03;14.52;;;2.70;;
21330;SDS011;10824;51.632;4.950;2022-12-24T00:43:31;8.57;;;3.03;;
21330;SDS011;10824;51.632;4.950;2022-12-24T00:45:58;13.27;;;3.80;;
21330;SDS011;10824;51.632;4.950;2022-12-24T00:48:25;13.98;;;3.58;;
21330;SDS011;10824;51.632;4.950;2022-12-24T00:50:52;17.70;;;3.00;;
21330;SDS011;10824;51.632;4.950;2022-12-24T00:53:19;17.95;;;4.35;;
21330;SDS011;10824;51.632;4.950;2022-12-24T00:55:46;13.68;;;3.20;;
21330;SDS011;10824;51.632;4.950;2022-12-24T00:58:14;14.90;;;2.63;;
21330;SDS011;10824;51.632;4.950;2022-12-24T01:00:40;9.52;;;3.35;;
21330;SDS011;10824;51.632;4.950;2022-12-24T01:03:07;11.13;;;3.38;;
21330;SDS011;10824;51.632;4.950;2022-12-24T01:05:35;13.07;;;2.97;;
21330;SDS011;10824;51.632;4.950;2022-12-24T01:08:01;15.40;;;4.00;;
21330;SDS011;10824;51.632;4.950;2022-12-24T01:10:29;10.48;;;2.58;;
21330;SDS011;10824;51.632;4.950;2022-12-24T01:12:56;13.90;;;2.60;;
21330;SDS011;10824;51.632;4.950;2022-12-24T01:15:26;14.32;;;2.97;;
21330;SDS011;10824;51.632;4.950;2022-12-24T01:17:53;14.70;;;3.45;;
21330;SDS011;10824;51.632;4.950;2022-12-24T01:20:20;7.53;;;2.40;;
21330;SDS011;10824;51.632;4.950;2022-12-24T01:22:47;14.68;;;2.38;;
21330;SDS011;10824;51.632;4.950;2022-12-24T01:25:14;12.38;;;2.55;;
21330;SDS011;10824;51.632;4.950;2022-12-24T01:27:41;12.43;;;4.00;;
21330;SDS011;10824;51.632;4.950;2022-12-24T01:30:08;20.33;;;3.03;;
21330;SDS011;10824;51.632;4.950;2022-12-24T01:32:38;12.15;;;3.38;;
21330;SDS011;10824;51.632;4.950;2022-12-24T01:35:05;14.30;;;3.80;;
21330;SDS011;10824;51.632;4.950;2022-12-24T01:37:32;13.38;;;3.60;;
21330;SDS011;10824;51.632;4.950;2022-12-24T01:39:59;10.48;;;3.00;;
21330;SDS011;10824;51.632;4.950;2022-12-24T01:42:47;24.30;;;4.28;;
21330;SDS011;10824;51.632;4.950;2022-12-24T01:48:12;10.60;;;3.10;;
21330;SDS011;10824;51.632;4.950;2022-12-24T01:50:40;14.65;;;3.00;;
21330;SDS011;10824;51.632;4.950;2022-12-24T01:53:07;11.43;;;3.28;;
21330;SDS011;10824;51.632;4.950;2022-12-24T01:55:35;15.02;;;2.72;;
21330;SDS011;10824;51.632;4.950;2022-12-24T01:58:02;9.18;;;3.05;;
21330;SDS011;10824;51.632;4.950;2022-12-24T02:00:31;17.58;;;2.80;;
21330;SDS011;10824;51.632;4.950;2022-12-24T02:02:59;13.60;;;3.22;;
21330;SDS011;10824;51.632;4.950;2022-12-24T02:05:34;14.95;;;3.15;;
21330;SDS011;10824;51.632;4.950;2022-12-24T02:08:05;10.82;;;3.65;;
21330;SDS011;10824;51.632;4.950;2022-12-24T02:10:34;15.02;;;3.05;;
21330;SDS011;10824;51.632;4.950;2022-12-24T02:13:01;20.13;;;4.82;;
21330;SDS011;10824;51.632;4.950;2022-12-24T02:15:31;27.15;;;3.50;;
21330;SDS011;10824;51.632;4.950;2022-12-24T02:21:22;12.63;;;3.53;;
21330;SDS011;10824;51.632;4.950;2022-12-24T02:24:14;14.40;;;3.53;;
21330;SDS011;10824;51.632;4.950;2022-12-24T02:32:47;13.57;;;3.13;;
21330;SDS011;10824;51.632;4.950;2022-12-24T02:38:12;20.73;;;2.95;;
21330;SDS011;10824;51.632;4.950;2022-12-24T02:41:08;16.45;;;3.22;;
21330;SDS011;10824;51.632;4.950;2022-12-24T02:43:40;14.25;;;2.55;;
21330;SDS011;10824;51.632;4.950;2022-12-24T02:46:14;12.30;;;3.08;;
21330;SDS011;10824;51.632;4.950;2022-12-24T02:48:52;19.15;;;3.30;;
21330;SDS011;10824;51.632;4.950;2022-12-24T02:51:22;16.70;;;2.67;;
21330;SDS011;10824;51.632;4.950;2022-12-24T02:53:50;12.48;;;2.70;;
21330;SDS011;10824;51.632;4.950;2022-12-24T03:01:51;11.20;;;3.33;;
21330;SDS011;10824;51.632;4.950;2022-12-24T03:04:39;9.38;;;2.70;;
21330;SDS011;10824;51.632;4.950;2022-12-24T03:07:25;14.25;;;4.35;;
21330;SDS011;10824;51.632;4.950;2022-12-24T03:15:29;14.88;;;3.53;;
21330;SDS011;10824;51.632;4.950;2022-12-24T03:17:59;13.73;;;3.55;;
21330;SDS011;10824;51.632;4.950;2022-12-24T03:20:39;21.40;;;3.15;;
21330;SDS011;10824;51.632;4.950;2022-12-24T03:23:08;14.10;;;4.28;;
21330;SDS011;10824;51.632;4.950;2022-12-24T03:25:37;9.35;;;2.78;;
21330;SDS011;10824;51.632;4.950;2022-12-24T03:28:06;13.23;;;3.83;;
21330;SDS011;10824;51.632;4.950;2022-12-24T03:30:43;10.77;;;3.00;;
21330;SDS011;10824;51.632;4.950;2022-12-24T03:33:12;9.60;;;2.70;;
21330;SDS011;10824;51.632;4.950;2022-12-24T03:35:39;18.73;;;4.03;;
21330;SDS011;10824;51.632;4.950;2022-12-24T03:38:06;11.63;;;2.88;;
21330;SDS011;10824;51.632;4.950;2022-12-24T03:40:33;18.00;;;3.13;;
21330;SDS011;10824;51.632;4.950;2022-12-24T03:43:00;16.48;;;3.08;;
21330;SDS011;10824;51.632;4.950;2022-12-24T03:45:27;14.50;;;3.00;;
21330;SDS011;10824;51.632;4.950;2022-12-24T03:47:54;12.20;;;2.63;;
21330;SDS011;10824;51.632;4.950;2022-12-24T03:50:21;24.60;;;4.18;;
21330;SDS011;10824;51.632;4.950;2022-12-24T03:52:48;16.52;;;3.70;;
21330;SDS011;10824;51.632;4.950;2022-12-24T03:55:15;17.45;;;3.33;;
21330;SDS011;10824;51.632;4.950;2022-12-24T03:57:42;15.95;;;3.63;;
21330;SDS011;10824;51.632;4.950;2022-12-24T04:00:09;17.15;;;2.92;;
21330;SDS011;10824;51.632;4.950;2022-12-24T04:02:37;8.07;;;3.08;;
21330;SDS011;10824;51.632;4.950;2022-12-24T04:05:04;9.40;;;3.75;;
21330;SDS011;10824;51.632;4.950;2022-12-24T04:07:32;10.02;;;3.00;;
21330;SDS011;10824;51.632;4.950;2022-12-24T04:10:00;12.88;;;3.38;;
21330;SDS011;10824;51.632;4.950;2022-12-24T04:12:26;14.65;;;3.13;;
21330;SDS011;10824;51.632;4.950;2022-12-24T04:14:53;16.10;;;3.15;;
21330;SDS011;10824;51.632;4.950;2022-12-24T04:17:21;7.97;;;3.67;;
21330;SDS011;10824;51.632;4.950;2022-12-24T04:19:48;17.33;;;3.42;;
21330;SDS011;10824;51.632;4.950;2022-12-24T04:22:15;16.02;;;3.25;;
21330;SDS011;10824;51.632;4.950;2022-12-24T04:24:42;7.47;;;3.17;;
21330;SDS011;10824;51.632;4.950;2022-12-24T04:27:09;11.88;;;3.10;;
21330;SDS011;10824;51.632;4.950;2022-12-24T04:29:36;16.67;;;3.50;;
21330;SDS011;10824;51.632;4.950;2022-12-24T04:32:03;10.07;;;3.33;;
21330;SDS011;10824;51.632;4.950;2022-12-24T04:34:30;19.58;;;3.53;;
21330;SDS011;10824;51.632;4.950;2022-12-24T04:36:57;15.05;;;3.30;;
21330;SDS011;10824;51.632;4.950;2022-12-24T04:39:24;14.25;;;3.22;;
21330;SDS011;10824;51.632;4.950;2022-12-24T04:41:51;13.85;;;2.90;;
21330;SDS011;10824;51.632;4.950;2022-12-24T04:44:18;21.45;;;3.30;;
21330;SDS011;10824;51.632;4.950;2022-12-24T04:46:45;13.80;;;4.22;;
21330;SDS011;10824;51.632;4.950;2022-12-24T04:49:12;15.75;;;3.38;;
21330;SDS011;10824;51.632;4.950;2022-12-24T04:51:39;16.52;;;5.85;;
21330;SDS011;10824;51.632;4.950;2022-12-24T04:54:06;11.35;;;3.97;;
21330;SDS011;10824;51.632;4.950;2022-12-24T04:56:33;18.38;;;4.55;;
21330;SDS011;10824;51.632;4.950;2022-12-24T04:59:00;12.88;;;4.40;;
21330;SDS011;10824;51.632;4.950;2022-12-24T05:01:28;24.98;;;5.07;;
21330;SDS011;10824;51.632;4.950;2022-12-24T05:03:57;21.48;;;3.67;;
21330;SDS011;10824;51.632;4.950;2022-12-24T05:06:26;22.67;;;3.53;;
21330;SDS011;10824;51.632;4.950;2022-12-24T05:08:57;16.02;;;3.70;;
21330;SDS011;10824;51.632;4.950;2022-12-24T05:11:25;11.13;;;3.05;;
21330;SDS011;10824;51.632;4.950;2022-12-24T05:13:52;19.02;;;3.47;;
21330;SDS011;10824;51.632;4.950;2022-12-24T05:16:19;25.30;;;4.53;;
21330;SDS011;10824;51.632;4.950;2022-12-24T05:18:48;17.67;;;4.75;;
21330;SDS011;10824;51.632;4.950;2022-12-24T05:21:16;9.38;;;4.10;;
21330;SDS011;10824;51.632;4.950;2022-12-24T05:23:46;11.48;;;2.88;;
21330;SDS011;10824;51.632;4.950;2022-12-24T05:26:37;11.90;;;2.88;;
21330;SDS011;10824;51.632;4.950;2022-12-24T05:29:07;12.95;;;3.72;;
21330;SDS011;10824;51.632;4.950;2022-12-24T05:31:37;18.48;;;3.40;;
21330;SDS011;10824;51.632;4.950;2022-12-24T05:34:05;19.27;;;3.80;;
21330;SDS011;10824;51.632;4.950;2022-12-24T05:36:33;27.92;;;3.05;;
21330;SDS011;10824;51.632;4.950;2022-12-24T05:39:00;14.32;;;3.08;;
21330;SDS011;10824;51.632;4.950;2022-12-24T05:41:27;14.50;;;4.60;;
21330;SDS011;10824;51.632;4.950;2022-12-24T05:43:54;13.98;;;2.72;;
21330;SDS011;10824;51.632;4.950;2022-12-24T05:46:22;17.08;;;3.30;;
21330;SDS011;10824;51.632;4.950;2022-12-24T05:48:51;24.35;;;4.38;;
21330;SDS011;10824;51.632;4.950;2022-12-24T05:51:19;15.65;;;2.90;;
21330;SDS011;10824;51.632;4.950;2022-12-24T05:53:50;17.20;;;4.75;;
21330;SDS011;10824;51.632;4.950;2022-12-24T05:56:18;22.35;;;5.05;;
21330;SDS011;10824;51.632;4.950;2022-12-24T05:58:48;11.48;;;2.90;;
21330;SDS011;10824;51.632;4.950;2022-12-24T06:01:16;9.98;;;3.15;;
21330;SDS011;10824;51.632;4.950;2022-12-24T06:03:43;15.52;;;2.55;;
21330;SDS011;10824;51.632;4.950;2022-12-24T06:06:12;9.65;;;2.70;;
21330;SDS011;10824;51.632;4.950;2022-12-24T06:08:40;11.90;;;2.78;;
21330;SDS011;10824;51.632;4.950;2022-12-24T06:11:09;16.40;;;2.67;;
21330;SDS011;10824;51.632;4.950;2022-12-24T06:13:39;12.32;;;4.35;;
21330;SDS011;10824;51.632;4.950;2022-12-24T06:16:08;8.23;;;2.88;;
21330;SDS011;10824;51.632;4.950;2022-12-24T06:18:40;11.18;;;2.58;;
21330;SDS011;10824;51.632;4.950;2022-12-24T06:21:08;17.77;;;3.83;;
21330;SDS011;10824;51.632;4.950;2022-12-24T06:23:37;11.60;;;2.97;;
21330;SDS011;10824;51.632;4.950;2022-12-24T06:26:06;17.33;;;3.50;;
21330;SDS011;10824;51.632;4.950;2022-12-24T06:28:34;19.77;;;4.15;;
21330;SDS011;10824;51.632;4.950;2022-12-24T06:31:04;9.88;;;2.60;;
21330;SDS011;10824;51.632;4.950;2022-12-24T06:33:32;20.70;;;4.43;;
21330;SDS011;10824;51.632;4.950;2022-12-24T06:36:00;18.20;;;4.15;;
21330;SDS011;10824;51.632;4.950;2022-12-24T06:38:29;13.77;;;4.03;;
21330;SDS011;10824;51.632;4.950;2022-12-24T06:40:56;11.05;;;3.35;;
21330;SDS011;10824;51.632;4.950;2022-12-24T06:43:24;17.65;;;5.18;;
21330;SDS011;10824;51.632;4.950;2022-12-24T06:45:51;14.43;;;5.30;;
21330;SDS011;10824;51.632;4.950;2022-12-24T06:48:18;16.33;;;3.70;;
21330;SDS011;10824;51.632;4.950;2022-12-24T06:50:45;18.40;;;3.47;;
21330;SDS011;10824;51.632;4.950;2022-12-24T06:53:13;15.85;;;3.03;;
21330;SDS011;10824;51.632;4.950;2022-12-24T06:55:40;13.32;;;4.35;;
21330;SDS011;10824;51.632;4.950;2022-12-24T06:58:07;13.82;;;2.97;;
21330;SDS011;10824;51.632;4.950;2022-12-24T07:00:34;14.65;;;3.13;;
21330;SDS011;10824;51.632;4.950;2022-12-24T07:03:01;14.70;;;3.45;;
21330;SDS011;10824;51.632;4.950;2022-12-24T07:05:29;15.10;;;4.32;;
21330;SDS011;10824;51.632;4.950;2022-12-24T07:07:56;19.88;;;3.83;;
21330;SDS011;10824;51.632;4.950;2022-12-24T07:10:23;12.85;;;3.05;;
21330;SDS011;10824;51.632;4.950;2022-12-24T07:12:50;13.88;;;3.63;;
21330;SDS011;10824;51.632;4.950;2022-12-24T07:15:17;14.63;;;4.57;;
21330;SDS011;10824;51.632;4.950;2022-12-24T07:17:44;19.20;;;6.18;;
21330;SDS011;10824;51.632;4.950;2022-12-24T07:20:12;14.38;;;3.97;;
21330;SDS011;10824;51.632;4.950;2022-12-24T07:22:42;15.23;;;3.35;;
21330;SDS011;10824;51.632;4.950;2022-12-24T07:25:10;18.27;;;4.40;;
21330;SDS011;10824;51.632;4.950;2022-12-24T07:27:37;20.35;;;3.72;;
21330;SDS011;10824;51.632;4.950;2022-12-24T07:30:05;15.73;;;4.50;;
21330;SDS011;10824;51.632;4.950;2022-12-24T07:32:33;18.83;;;4.22;;
21330;SDS011;10824;51.632;4.950;2022-12-24T07:35:00;17.88;;;4.22;;
21330;SDS011;10824;51.632;4.950;2022-12-24T07:37:27;17.42;;;5.18;;
21330;SDS011;10824;51.632;4.950;2022-12-24T07:39:54;16.83;;;3.47;;
21330;SDS011;10824;51.632;4.950;2022-12-24T07:42:22;18.63;;;4.80;;
21330;SDS011;10824;51.632;4.950;2022-12-24T07:44:49;10.50;;;3.58;;
21330;SDS011;10824;51.632;4.950;2022-12-24T07:47:16;12.95;;;3.30;;
21330;SDS011;10824;51.632;4.950;2022-12-24T07:49:43;20.63;;;7.22;;
21330;SDS011;10824;51.632;4.950;2022-12-24T07:52:10;15.88;;;3.58;;
21330;SDS011;10824;51.632;4.950;2022-12-24T07:54:37;17.00;;;4.57;;
21330;SDS011;10824;51.632;4.950;2022-12-24T07:57:04;15.95;;;3.45;;
21330;SDS011;10824;51.632;4.950;2022-12-24T07:59:31;24.52;;;4.65;;
21330;SDS011;10824;51.632;4.950;2022-12-24T08:01:58;14.00;;;5.20;;
21330;SDS011;10824;51.632;4.950;2022-12-24T08:04:25;10.90;;;3.20;;
21330;SDS011;10824;51.632;4.950;2022-12-24T08:06:52;11.40;;;3.08;;
21330;SDS011;10824;51.632;4.950;2022-12-24T08:09:19;19.00;;;4.50;;
21330;SDS011;10824;51.632;4.950;2022-12-24T08:11:46;17.85;;;3.25;;
21330;SDS011;10824;51.632;4.950;2022-12-24T08:14:17;13.30;;;3.28;;
21330;SDS011;10824;51.632;4.950;2022-12-24T08:16:45;11.00;;;3.08;;
21330;SDS011;10824;51.632;4.950;2022-12-24T08:19:12;8.20;;;2.60;;
21330;SDS011;10824;51.632;4.950;2022-12-24T08:21:39;16.08;;;2.88;;
21330;SDS011;10824;51.632;4.950;2022-12-24T08:24:06;13.75;;;3.40;;
21330;SDS011;10824;51.632;4.950;2022-12-24T08:26:33;15.70;;;3.03;;
21330;SDS011;10824;51.632;4.950;2022-12-24T08:29:03;15.80;;;3.20;;
21330;SDS011;10824;51.632;4.950;2022-12-24T08:31:30;12.95;;;3.35;;
21330;SDS011;10824;51.632;4.950;2022-12-24T08:34:03;22.23;;;3.92;;
21330;SDS011;10824;51.632;4.950;2022-12-24T08:36:32;9.00;;;3.00;;
21330;SDS011;10824;51.632;4.950;2022-12-24T08:39:00;11.55;;;3.15;;
21330;SDS011;10824;51.632;4.950;2022-12-24T08:41:29;13.68;;;3.20;;
21330;SDS011;10824;51.632;4.950;2022-12-24T08:43:57;10.57;;;3.20;;
21330;SDS011;10824;51.632;4.950;2022-12-24T08:46:24;14.95;;;3.72;;
21330;SDS011;10824;51.632;4.950;2022-12-24T08:48:54;17.65;;;3.20;;
21330;SDS011;10824;51.632;4.950;2022-12-24T08:51:23;13.57;;;3.22;;
21330;SDS011;10824;51.632;4.950;2022-12-24T08:53:50;23.67;;;3.70;;
21330;SDS011;10824;51.632;4.950;2022-12-24T08:56:17;12.57;;;3.38;;
21330;SDS011;10824;51.632;4.950;2022-12-24T08:58:44;17.60;;;4.28;;
21330;SDS011;10824;51.632;4.950;2022-12-24T09:01:13;16.58;;;3.92;;
21330;SDS011;10824;51.632;4.950;2022-12-24T09:03:43;14.70;;;3.40;;
21330;SDS011;10824;51.632;4.950;2022-12-24T09:06:11;11.70;;;3.33;;
21330;SDS011;10824;51.632;4.950;2022-12-24T09:08:38;12.85;;;4.55;;
21330;SDS011;10824;51.632;4.950;2022-12-24T09:11:08;17.17;;;3.60;;
21330;SDS011;10824;51.632;4.950;2022-12-24T09:13:37;21.33;;;4.30;;
21330;SDS011;10824;51.632;4.950;2022-12-24T09:16:04;13.63;;;4.50;;
21330;SDS011;10824;51.632;4.950;2022-12-24T09:18:32;16.83;;;4.20;;
21330;SDS011;10824;51.632;4.950;2022-12-24T09:21:00;12.20;;;3.30;;
21330;SDS011;10824;51.632;4.950;2022-12-24T09:23:28;22.70;;;4.22;;
21330;SDS011;10824;51.632;4.950;2022-12-24T09:25:56;17.05;;;3.60;;
21330;SDS011;10824;51.632;4.950;2022-12-24T09:28:23;14.88;;;3.00;;
21330;SDS011;10824;51.632;4.950;2022-12-24T09:30:54;25.60;;;4.78;;
21330;SDS011;10824;51.632;4.950;2022-12-24T09:33:28;31.10;;;7.53;;
21330;SDS011;10824;51.632;4.950;2022-12-24T09:35:58;13.45;;;4.07;;
21330;SDS011;10824;51.632;4.950;2022-12-24T09:38:26;17.05;;;6.25;;
21330;SDS011;10824;51.632;4.950;2022-12-24T09:40:53;12.63;;;3.90;;
21330;SDS011;10824;51.632;4.950;2022-12-24T09:43:24;15.57;;;4.05;;
21330;SDS011;10824;51.632;4.950;2022-12-24T09:49:03;20.00;;;3.70;;
21330;SDS011;10824;51.632;4.950;2022-12-24T09:51:41;22.05;;;3.70;;
21330;SDS011;10824;51.632;4.950;2022-12-24T09:56:55;20.80;;;4.13;;
21330;SDS011;10824;51.632;4.950;2022-12-24T09:59:34;17.02;;;3.50;;
21330;SDS011;10824;51.632;4.950;2022-12-24T10:02:13;13.45;;;3.92;;
21330;SDS011;10824;51.632;4.950;2022-12-24T10:04:44;20.90;;;4.07;;
21330;SDS011;10824;51.632;4.950;2022-12-24T10:10:02;16.30;;;5.15;;
21330;SDS011;10824;51.632;4.950;2022-12-24T10:13:02;25.45;;;6.20;;
21330;SDS011;10824;51.632;4.950;2022-12-24T10:15:59;19.70;;;4.10;;
21330;SDS011;10824;51.632;4.950;2022-12-24T10:19:22;17.23;;;3.58;;
21330;SDS011;10824;51.632;4.950;2022-12-24T10:24:57;12.55;;;3.60;;
21330;SDS011;10824;51.632;4.950;2022-12-24T10:27:25;14.52;;;3.30;;
21330;SDS011;10824;51.632;4.950;2022-12-24T10:30:00;10.77;;;2.90;;
21330;SDS011;10824;51.632;4.950;2022-12-24T10:32:33;21.10;;;3.17;;
21330;SDS011;10824;51.632;4.950;2022-12-24T10:35:14;10.35;;;3.08;;
21330;SDS011;10824;51.632;4.950;2022-12-24T10:37:46;13.50;;;3.10;;
21330;SDS011;10824;51.632;4.950;2022-12-24T10:40:23;14.60;;;3.17;;
21330;SDS011;10824;51.632;4.950;2022-12-24T10:42:57;12.23;;;3.20;;
21330;SDS011;10824;51.632;4.950;2022-12-24T10:45:25;15.65;;;4.13;;
21330;SDS011;10824;51.632;4.950;2022-12-24T10:48:01;15.20;;;3.55;;
21330;SDS011;10824;51.632;4.950;2022-12-24T10:50:38;15.00;;;3.22;;
21330;SDS011;10824;51.632;4.950;2022-12-24T10:53:22;14.32;;;3.55;;
21330;SDS011;10824;51.632;4.950;2022-12-24T10:56:03;15.88;;;4.00;;
21330;SDS011;10824;51.632;4.950;2022-12-24T10:58:36;14.80;;;3.88;;
21330;SDS011;10824;51.632;4.950;2022-12-24T11:01:12;16.98;;;3.90;;
21330;SDS011;10824;51.632;4.950;2022-12-24T11:03:39;15.68;;;4.78;;
21330;SDS011;10824;51.632;4.950;2022-12-24T11:06:13;13.30;;;3.00;;
21330;SDS011;10824;51.632;4.950;2022-12-24T11:08:43;10.05;;;3.03;;
21330;SDS011;10824;51.632;4.950;2022-12-24T11:11:17;15.13;;;3.70;;
21330;SDS011;10824;51.632;4.950;2022-12-24T11:18:50;11.50;;;2.38;;
21330;SDS011;10824;51.632;4.950;2022-12-24T11:21:20;21.23;;;3.45;;
21330;SDS011;10824;51.632;4.950;2022-12-24T11:24:06;11.13;;;3.15;;
21330;SDS011;10824;51.632;4.950;2022-12-24T11:26:44;14.05;;;3.67;;
21330;SDS011;10824;51.632;4.950;2022-12-24T11:31:46;13.07;;;2.78;;
21330;SDS011;10824;51.632;4.950;2022-12-24T11:34:18;11.27;;;2.90;;
21330;SDS011;10824;51.632;4.950;2022-12-24T11:36:48;15.60;;;3.13;;
21330;SDS011;10824;51.632;4.950;2022-12-24T11:39:17;9.90;;;2.58;;
21330;SDS011;10824;51.632;4.950;2022-12-24T11:41:47;13.00;;;3.30;;
21330;SDS011;10824;51.632;4.950;2022-12-24T11:44:25;18.05;;;4.00;;
21330;SDS011;10824;51.632;4.950;2022-12-24T11:46:55;10.68;;;2.92;;
21330;SDS011;10824;51.632;4.950;2022-12-24T11:49:31;10.38;;;2.72;;
21330;SDS011;10824;51.632;4.950;2022-12-24T11:52:04;11.52;;;3.15;;
21330;SDS011;10824;51.632;4.950;2022-12-24T11:54:45;10.48;;;2.38;;
21330;SDS011;10824;51.632;4.950;2022-12-24T11:57:14;11.70;;;2.28;;
21330;SDS011;10824;51.632;4.950;2022-12-24T11:59:47;8.10;;;3.55;;
21330;SDS011;10824;51.632;4.950;2022-12-24T12:02:25;11.35;;;2.80;;
21330;SDS011;10824;51.632;4.950;2022-12-24T12:05:07;16.70;;;3.13;;
21330;SDS011;10824;51.632;4.950;2022-12-24T12:07:38;8.63;;;3.13;;
21330;SDS011;10824;51.632;4.950;2022-12-24T12:12:46;9.93;;;2.63;;
21330;SDS011;10824;51.632;4.950;2022-12-24T12:15:36;13.55;;;2.60;;
21330;SDS011;10824;51.632;4.950;2022-12-24T12:30:05;10.52;;;2.90;;
21330;SDS011;10824;51.632;4.950;2022-12-24T12:40:28;21.63;;;3.00;;
21330;SDS011;10824;51.632;4.950;2022-12-24T12:43:12;14.43;;;4.90;;
21330;SDS011;10824;51.632;4.950;2022-12-24T12:50:28;15.45;;;3.83;;
21330;SDS011;10824;51.632;4.950;2022-12-24T12:53:14;20.98;;;3.85;;
21330;SDS011;10824;51.632;4.950;2022-12-24T12:58:37;16.15;;;2.55;;
21330;SDS011;10824;51.632;4.950;2022-12-24T13:12:22;10.27;;;3.63;;
21330;SDS011;10824;51.632;4.950;2022-12-24T13:21:43;21.25;;;5.13;;
21330;SDS011;10824;51.632;4.950;2022-12-24T13:26:38;11.75;;;2.55;;
21330;SDS011;10824;51.632;4.950;2022-12-24T13:35:30;15.02;;;3.97;;
21330;SDS011;10824;51.632;4.950;2022-12-24T13:37:48;12.48;;;2.83;;
21330;SDS011;10824;51.632;4.950;2022-12-24T13:40:24;11.57;;;3.42;;
21330;SDS011;10824;51.632;4.950;2022-12-24T13:55:55;13.18;;;4.05;;
21330;SDS011;10824;51.632;4.950;2022-12-24T13:58:43;9.98;;;3.63;;
21330;SDS011;10824;51.632;4.950;2022-12-24T14:01:14;9.90;;;2.53;;
21330;SDS011;10824;51.632;4.950;2022-12-24T14:03:48;11.35;;;2.83;;
21330;SDS011;10824;51.632;4.950;2022-12-24T14:08:50;9.98;;;2.60;;
21330;SDS011;10824;51.632;4.950;2022-12-24T14:11:22;7.65;;;3.15;;
21330;SDS011;10824;51.632;4.950;2022-12-24T14:16:27;16.88;;;3.63;;
21330;SDS011;10824;51.632;4.950;2022-12-24T14:21:41;15.77;;;4.40;;
21330;SDS011;10824;51.632;4.950;2022-12-24T14:24:16;11.45;;;2.45;;
21330;SDS011;10824;51.632;4.950;2022-12-24T14:29:25;7.05;;;2.28;;
21330;SDS011;10824;51.632;4.950;2022-12-24T14:31:56;8.68;;;2.40;;
21330;SDS011;10824;51.632;4.950;2022-12-24T14:34:30;8.48;;;3.03;;
21330;SDS011;10824;51.632;4.950;2022-12-24T14:36:58;15.98;;;2.60;;
21330;SDS011;10824;51.632;4.950;2022-12-24T14:53:25;10.25;;;3.40;;
21330;SDS011;10824;51.632;4.950;2022-12-24T14:56:07;23.17;;;3.90;;
21330;SDS011;10824;51.632;4.950;2022-12-24T14:58:38;14.52;;;4.47;;
21330;SDS011;10824;51.632;4.950;2022-12-24T15:01:22;11.80;;;3.15;;
21330;SDS011;10824;51.632;4.950;2022-12-24T15:06:30;16.13;;;3.83;;
21330;SDS011;10824;51.632;4.950;2022-12-24T15:09:00;12.95;;;3.47;;
21330;SDS011;10824;51.632;4.950;2022-12-24T15:11:33;15.75;;;3.47;;
21330;SDS011;10824;51.632;4.950;2022-12-24T15:14:02;11.32;;;5.30;;
21330;SDS011;10824;51.632;4.950;2022-12-24T15:16:31;11.82;;;3.50;;
21330;SDS011;10824;51.632;4.950;2022-12-24T15:19:18;21.98;;;4.68;;
21330;SDS011;10824;51.632;4.950;2022-12-24T15:21:50;15.13;;;3.70;;
21330;SDS011;10824;51.632;4.950;2022-12-24T15:26:51;14.52;;;3.78;;
21330;SDS011;10824;51.632;4.950;2022-12-24T15:29:26;10.82;;;3.33;;
21330;SDS011;10824;51.632;4.950;2022-12-24T15:31:56;12.55;;;4.05;;
21330;SDS011;10824;51.632;4.950;2022-12-24T15:34:27;19.30;;;4.70;;
21330;SDS011;10824;51.632;4.950;2022-12-24T15:37:06;18.20;;;5.00;;
21330;SDS011;10824;51.632;4.950;2022-12-24T15:39:42;17.63;;;3.78;;
21330;SDS011;10824;51.632;4.950;2022-12-24T15:42:10;14.27;;;4.20;;
21330;SDS011;10824;51.632;4.950;2022-12-24T15:45:10;11.45;;;4.10;;
21330;SDS011;10824;51.632;4.950;2022-12-24T15:47:59;14.10;;;4.25;;
21330;SDS011;10824;51.632;4.950;2022-12-24T15:50:35;13.52;;;4.03;;
21330;SDS011;10824;51.632;4.950;2022-12-24T15:53:04;14.65;;;5.60;;
21330;SDS011;10824;51.632;4.950;2022-12-24T15:58:35;29.73;;;7.38;;
21330;SDS011;10824;51.632;4.950;2022-12-24T16:03:35;23.55;;;7.63;;
21330;SDS011;10824;51.632;4.950;2022-12-24T16:06:07;20.25;;;7.85;;
21330;SDS011;10824;51.632;4.950;2022-12-24T16:08:37;22.60;;;7.28;;
21330;SDS011;10824;51.632;4.950;2022-12-24T16:13:43;25.88;;;10.88;;
21330;SDS011;10824;51.632;4.950;2022-12-24T16:16:20;33.38;;;14.70;;
21330;SDS011;10824;51.632;4.950;2022-12-24T16:19:03;26.13;;;10.18;;
21330;SDS011;10824;51.632;4.950;2022-12-24T16:21:36;24.85;;;7.88;;
21330;SDS011;10824;51.632;4.950;2022-12-24T16:24:17;25.13;;;8.23;;
21330;SDS011;10824;51.632;4.950;2022-12-24T16:26:44;20.13;;;7.38;;
21330;SDS011;10824;51.632;4.950;2022-12-24T16:29:13;21.95;;;7.45;;
21330;SDS011;10824;51.632;4.950;2022-12-24T16:31:43;22.10;;;7.72;;
21330;SDS011;10824;51.632;4.950;2022-12-24T16:34:17;23.13;;;7.25;;
21330;SDS011;10824;51.632;4.950;2022-12-24T16:36:47;18.77;;;5.25;;
21330;SDS011;10824;51.632;4.950;2022-12-24T16:41:52;19.63;;;6.80;;
21330;SDS011;10824;51.632;4.950;2022-12-24T16:44:39;18.27;;;6.10;;
21330;SDS011;10824;51.632;4.950;2022-12-24T16:47:24;13.35;;;5.60;;
21330;SDS011;10824;51.632;4.950;2022-12-24T16:50:03;20.50;;;6.72;;
21330;SDS011;10824;51.632;4.950;2022-12-24T16:52:32;20.27;;;6.15;;
21330;SDS011;10824;51.632;4.950;2022-12-24T16:54:59;21.35;;;6.85;;
21330;SDS011;10824;51.632;4.950;2022-12-24T16:57:26;19.45;;;5.95;;
21330;SDS011;10824;51.632;4.950;2022-12-24T16:59:54;20.75;;;5.85;;
21330;SDS011;10824;51.632;4.950;2022-12-24T17:02:21;15.10;;;5.95;;
21330;SDS011;10824;51.632;4.950;2022-12-24T17:04:49;18.77;;;6.15;;
21330;SDS011;10824;51.632;4.950;2022-12-24T17:07:18;15.35;;;6.68;;
21330;SDS011;10824;51.632;4.950;2022-12-24T17:09:46;21.80;;;8.85;;
21330;SDS011;10824;51.632;4.950;2022-12-24T17:12:13;14.45;;;5.82;;
21330;SDS011;10824;51.632;4.950;2022-12-24T17:14:41;15.68;;;6.53;;
21330;SDS011;10824;51.632;4.950;2022-12-24T17:17:16;21.60;;;6.47;;
21330;SDS011;10824;51.632;4.950;2022-12-24T17:19:48;10.63;;;5.05;;
21330;SDS011;10824;51.632;4.950;2022-12-24T17:22:15;18.08;;;6.45;;
21330;SDS011;10824;51.632;4.950;2022-12-24T17:24:42;20.65;;;5.43;;
21330;SDS011;10824;51.632;4.950;2022-12-24T17:27:10;15.45;;;4.75;;
21330;SDS011;10824;51.632;4.950;2022-12-24T17:29:39;14.13;;;4.68;;
21330;SDS011;10824;51.632;4.950;2022-12-24T17:32:07;12.73;;;3.88;;